Time;durP1;ratioP1;P1;durP2;ratioP2;P2;SDS_P1;SDS_P2;PMS_P1;PMS_P2;Temp;Humidity;BMP_temperature;BMP_pressure;BME280_temperature;BME280_humidity;BME280_pressure;Samples;Min_cycle;Max_cycle;Signal;HPM_P1;HPM_P2
2022/02/25 00:00:11;;;;;;;2.07;1.20;;;;;;;3.44;100.00;100137.31;6064993;23;20050;-79
2022/02/25 00:02:43;;;;;;;1.40;1.00;;;;;;;3.36;100.00;100138.22;6063892;23;20154;-80
2022/02/25 00:05:10;;;;;;;1.63;1.10;;;;;;;3.31;100.00;100158.22;6065125;23;20033;-80
2022/02/25 00:07:36;;;;;;;4.07;1.00;;;;;;;3.11;99.94;100146.84;6064791;23;20023;-79
2022/02/25 00:10:04;;;;;;;1.10;0.93;;;;;;;3.15;100.00;100160.81;6039507;23;20027;-78
2022/02/25 00:12:31;;;;;;;1.63;1.10;;;;;;;3.06;100.00;100166.88;6064412;23;20081;-79
2022/02/25 00:14:58;;;;;;;1.37;1.00;;;;;;;3.12;100.00;100176.47;6063155;23;20030;-79
2022/02/25 00:17:25;;;;;;;2.00;1.23;;;;;;;3.15;100.00;100181.69;6041773;23;20023;-79
2022/02/25 00:19:52;;;;;;;1.53;1.20;;;;;;;3.23;100.00;100190.41;6091899;23;20027;-80
2022/02/25 00:22:20;;;;;;;1.83;1.10;;;;;;;3.21;100.00;100189.53;6067940;23;20030;-80
2022/02/25 00:24:47;;;;;;;1.77;1.00;;;;;;;3.22;99.17;100201.72;6068520;23;20027;-80
2022/02/25 00:27:16;;;;;;;0.93;0.80;;;;;;;3.19;100.00;100210.38;6069267;23;20123;-80
2022/02/25 00:29:43;;;;;;;1.93;1.10;;;;;;;3.18;100.00;100221.69;6020662;23;20031;-80
2022/02/25 00:32:10;;;;;;;1.53;1.13;;;;;;;3.18;98.19;100211.25;6045339;23;20494;-81
2022/02/25 00:34:36;;;;;;;1.23;1.00;;;;;;;3.30;98.48;100213.91;6043386;23;20035;-80
2022/02/25 00:37:03;;;;;;;1.70;1.10;;;;;;;3.23;97.80;100211.28;6044865;23;20023;-80
2022/02/25 00:39:30;;;;;;;1.87;1.10;;;;;;;3.34;96.63;100220.88;6044737;23;20027;-79
2022/02/25 00:41:57;;;;;;;1.53;0.90;;;;;;;3.31;97.37;100230.44;6068826;23;20057;-81
2022/02/25 00:44:23;;;;;;;1.10;0.93;;;;;;;3.24;95.78;100226.94;6070502;23;20023;-80
2022/02/25 00:46:51;;;;;;;1.47;1.00;;;;;;;3.31;95.27;100236.53;6070140;23;20030;-80
2022/02/25 00:49:19;;;;;;;2.17;1.10;;;;;;;3.25;93.72;100253.91;6054681;23;20022;-81
2022/02/25 00:51:45;;;;;;;1.47;1.00;;;;;;;3.31;94.40;100253.94;6078163;23;20027;-81
2022/02/25 00:54:12;;;;;;;2.13;1.20;;;;;;;3.22;95.09;100261.75;6052755;23;20018;-80
2022/02/25 00:56:39;;;;;;;1.00;0.80;;;;;;;3.21;93.98;100265.25;6075664;23;20019;-79
2022/02/25 00:59:06;;;;;;;0.97;0.87;;;;;;;3.24;95.32;100273.94;6051822;23;20047;-80
2022/02/25 01:01:32;;;;;;;1.93;1.13;;;;;;;3.24;96.39;100270.47;6075789;23;20328;-77
2022/02/25 01:03:59;;;;;;;1.53;1.00;;;;;;;3.29;95.10;100277.44;6075926;23;20018;-81
2022/02/25 01:06:29;;;;;;;1.97;1.10;;;;;;;3.30;93.22;100273.09;6047140;23;20027;-81
2022/02/25 01:08:57;;;;;;;2.97;1.10;;;;;;;3.22;94.30;100274.81;6071667;23;20018;-80
2022/02/25 01:11:24;;;;;;;5.30;1.20;;;;;;;3.15;93.06;100281.75;6073276;23;20019;-80
2022/02/25 01:13:51;;;;;;;1.70;0.87;;;;;;;3.16;92.36;100280.88;6046659;23;20407;-78
2022/02/25 01:16:19;;;;;;;2.77;0.97;;;;;;;3.13;92.69;100283.47;6070982;23;20023;-80
2022/02/25 01:18:47;;;;;;;1.30;0.97;;;;;;;3.09;92.89;100286.94;6048640;23;20118;-80
2022/02/25 01:21:13;;;;;;;4.17;1.50;;;;;;;3.01;93.09;100283.41;6071552;23;20102;-79
2022/02/25 01:23:41;;;;;;;2.40;0.90;;;;;;;2.99;93.56;100298.19;6070261;23;20070;-80
2022/02/25 01:26:08;;;;;;;3.23;1.17;;;;;;;2.96;93.37;100308.63;6070269;23;20029;-81
2022/02/25 01:28:35;;;;;;;2.03;0.93;;;;;;;2.97;94.12;100307.78;6073514;23;20037;-80
2022/02/25 01:31:02;;;;;;;1.40;1.00;;;;;;;2.93;93.48;100312.09;6078416;23;20023;-81
2022/02/25 01:33:29;;;;;;;1.27;1.00;;;;;;;2.99;94.26;100313.84;6052652;23;20023;-79
2022/02/25 01:35:56;;;;;;;1.80;1.10;;;;;;;3.06;93.88;100331.28;6101326;23;20019;-79
2022/02/25 01:38:23;;;;;;;3.03;1.13;;;;;;;3.04;92.48;100328.69;6100316;23;20027;-81
2022/02/25 01:40:50;;;;;;;1.73;1.10;;;;;;;3.09;93.67;100331.28;6078718;23;20018;-79
2022/02/25 01:43:17;;;;;;;4.77;1.27;;;;;;;3.14;92.40;100328.72;6080352;23;20023;-82
2022/02/25 01:45:43;;;;;;;3.03;1.63;;;;;;;3.15;93.51;100330.47;6075149;23;20022;-82
2022/02/25 01:48:10;;;;;;;2.20;1.17;;;;;;;3.15;92.86;100333.94;6075358;23;20014;-80
2022/02/25 01:50:37;;;;;;;3.67;1.10;;;;;;;3.19;92.63;100334.81;6100036;23;20082;-81
2022/02/25 01:53:12;;;;;;;2.13;1.30;;;;;;;3.12;93.97;100344.38;6121661;23;20028;-83
2022/02/25 01:55:41;;;;;;;1.90;1.00;;;;;;;3.16;93.66;100327.84;6071181;23;20049;-83
2022/02/25 01:58:09;;;;;;;1.37;1.27;;;;;;;3.23;93.25;100339.19;6075151;23;20097;-82
2022/02/25 02:00:36;;;;;;;1.80;1.07;;;;;;;3.20;93.36;100347.91;6073309;23;20468;-82
2022/02/25 02:03:04;;;;;;;4.00;1.20;;;;;;;3.21;93.44;100347.03;6072886;23;20029;-83
2022/02/25 02:05:35;;;;;;;3.40;1.30;;;;;;;3.24;93.83;100347.03;6094838;23;20418;-82
2022/02/25 02:08:02;;;;;;;5.37;1.20;;;;;;;3.20;93.38;100344.41;6047113;23;20018;-83
2022/02/25 02:10:29;;;;;;;2.13;1.20;;;;;;;3.23;94.52;100353.13;6070523;23;20105;-85
2022/02/25 02:12:56;;;;;;;1.57;1.10;;;;;;;3.23;94.95;100355.72;6070914;23;20113;-84
2022/02/25 02:15:22;;;;;;;3.10;1.30;;;;;;;3.23;93.61;100350.50;6046947;23;20386;-86
2022/02/25 02:17:49;;;;;;;2.63;1.50;;;;;;;3.29;94.15;100368.81;6047467;23;20026;-83
2022/02/25 02:20:16;;;;;;;3.13;1.10;;;;;;;3.27;94.88;100354.88;6071441;23;20022;-83
2022/02/25 02:22:43;;;;;;;2.53;1.00;;;;;;;3.27;95.40;100361.81;6072349;23;20022;-85
2022/02/25 02:25:09;;;;;;;1.97;1.30;;;;;;;3.24;95.90;100362.69;6093977;23;20078;-84
2022/02/25 02:30:22;;;;;;;2.37;1.00;;;;;;;3.21;96.07;100372.25;6075467;23;20042;-83
2022/02/25 02:32:48;;;;;;;4.93;1.67;;;;;;;3.23;95.80;100371.41;6070891;23;20026;-82
2022/02/25 02:35:15;;;;;;;5.80;1.60;;;;;;;3.20;95.24;100378.34;6078871;23;20023;-86
2022/02/25 02:37:42;;;;;;;5.27;1.67;;;;;;;3.10;95.07;100374.81;6104199;23;20357;-85
2022/02/25 02:40:09;;;;;;;3.13;1.83;;;;;;;3.09;96.06;100386.97;6083224;23;20055;-84
2022/02/25 02:42:36;;;;;;;2.97;1.30;;;;;;;3.09;97.26;100391.31;6082796;23;20026;-82
2022/02/25 02:45:03;;;;;;;3.50;1.67;;;;;;;3.03;96.92;100389.56;6081836;23;20081;-81
2022/02/25 02:47:30;;;;;;;3.50;1.43;;;;;;;3.03;96.63;100397.41;6058991;23;20026;-84
2022/02/25 02:49:57;;;;;;;3.00;1.63;;;;;;;3.05;97.65;100400.88;6059014;23;20030;-83
2022/02/25 02:52:23;;;;;;;2.87;1.40;;;;;;;3.02;97.70;100402.59;6059975;23;20022;-87
2022/02/25 02:54:50;;;;;;;3.30;1.40;;;;;;;2.99;98.53;100411.28;6082087;23;20050;-86
2022/02/25 02:57:20;;;;;;;4.20;1.90;;;;;;;2.95;96.81;100414.75;6084351;23;20034;-85
2022/02/25 02:59:47;;;;;;;3.20;1.53;;;;;;;2.98;99.06;100424.31;6060610;23;20114;-84
2022/02/25 03:02:14;;;;;;;3.07;1.50;;;;;;;3.01;99.01;100427.81;6083706;23;20027;-85
2022/02/25 03:04:41;;;;;;;6.07;1.60;;;;;;;3.02;98.74;100428.69;6075852;23;20109;-84
2022/02/25 03:07:09;;;;;;;3.53;1.37;;;;;;;2.92;99.94;100435.59;6072318;23;20406;-85
2022/02/25 03:09:37;;;;;;;4.47;1.57;;;;;;;2.83;98.32;100436.41;6073111;23;20050;-84
2022/02/25 03:12:04;;;;;;;3.03;1.70;;;;;;;2.78;98.97;100440.72;6072043;23;20022;-85
2022/02/25 03:14:31;;;;;;;2.97;1.87;;;;;;;2.69;99.62;100443.28;6071971;23;20398;-85
2022/02/25 03:16:57;;;;;;;4.57;1.50;;;;;;;2.67;100.00;100449.31;6068015;23;20036;-85
2022/02/25 03:19:24;;;;;;;3.20;1.50;;;;;;;2.70;100.00;100458.06;6053078;23;20026;-85
2022/02/25 03:21:51;;;;;;;4.87;2.20;;;;;;;2.68;100.00;100464.09;6081761;23;20023;-88
2022/02/25 03:24:18;;;;;;;6.73;2.47;;;;;;;2.56;100.00;100459.66;6058218;23;20030;-83
2022/02/25 03:26:44;;;;;;;3.77;2.10;;;;;;;2.62;100.00;100462.31;6058162;23;20022;-88
2022/02/25 03:29:13;;;;;;;3.50;1.70;;;;;;;2.63;100.00;100465.81;6061122;23;20046;-85
2022/02/25 03:31:40;;;;;;;8.00;2.30;;;;;;;2.66;100.00;100461.47;6082692;23;20022;-83
2022/02/25 03:34:06;;;;;;;6.50;1.97;;;;;;;2.57;100.00;100464.00;6084217;23;20205;-85
2022/02/25 03:36:33;;;;;;;5.67;1.80;;;;;;;2.57;100.00;100465.75;6083555;23;20061;-87
2022/02/25 03:39:00;;;;;;;4.57;2.13;;;;;;;2.58;100.00;100477.91;6078107;23;20358;-84
2022/02/25 03:41:27;;;;;;;4.90;3.23;;;;;;;2.56;100.00;100470.09;6073992;23;20448;-82
2022/02/25 03:43:53;;;;;;;5.63;2.07;;;;;;;2.63;100.00;100482.31;6073318;23;20061;-84
2022/02/25 03:46:20;;;;;;;4.30;2.30;;;;;;;2.62;100.00;100485.81;6072041;23;20026;-86
2022/02/25 03:48:47;;;;;;;3.87;2.10;;;;;;;2.69;100.00;100487.59;6048788;23;20022;-81
2022/02/25 03:51:13;;;;;;;6.20;2.30;;;;;;;2.67;100.00;100489.31;6071706;23;20049;-85
2022/02/25 03:53:40;;;;;;;6.97;2.40;;;;;;;2.68;100.00;100493.66;6072414;23;20026;-84
2022/02/25 03:56:07;;;;;;;3.67;1.87;;;;;;;2.60;100.00;100497.06;6070810;23;20492;-84
2022/02/25 03:58:33;;;;;;;6.17;2.20;;;;;;;2.62;100.00;100504.06;6048956;23;20018;-84
2022/02/25 04:01:00;;;;;;;4.10;2.30;;;;;;;2.69;100.00;100500.66;6096152;23;20027;-84
2022/02/25 04:03:27;;;;;;;3.87;2.30;;;;;;;2.47;100.00;100503.91;6048047;23;20034;-84
2022/02/25 04:05:54;;;;;;;5.80;2.17;;;;;;;2.54;100.00;100510.94;6072775;23;20022;-84
2022/02/25 04:08:21;;;;;;;9.17;2.80;;;;;;;2.56;100.00;100509.22;6072483;23;20026;-84
2022/02/25 04:10:47;;;;;;;6.50;2.50;;;;;;;2.62;100.00;100519.72;6049017;23;20033;-84
2022/02/25 04:13:14;;;;;;;6.30;2.30;;;;;;;2.59;100.00;100521.41;6049119;23;20077;-84
2022/02/25 04:15:41;;;;;;;5.13;2.27;;;;;;;2.59;100.00;100524.88;6072094;23;20023;-84
2022/02/25 04:18:07;;;;;;;5.63;2.63;;;;;;;2.63;100.00;100531.88;6048212;23;20019;-84
2022/02/25 04:20:34;;;;;;;5.00;2.60;;;;;;;2.57;100.00;100526.59;6048326;23;20033;-85
2022/02/25 04:23:02;;;;;;;6.87;2.50;;;;;;;2.61;100.00;100525.78;6072880;23;20030;-84
2022/02/25 04:25:29;;;;;;;5.50;2.30;;;;;;;2.58;99.63;100528.34;6094414;23;20042;-82
2022/02/25 04:27:56;;;;;;;4.60;2.33;;;;;;;2.49;99.36;100528.25;6072369;23;20027;-84
2022/02/25 04:30:24;;;;;;;6.60;2.90;;;;;;;2.39;100.00;100531.63;6072329;23;20081;-84
2022/02/25 04:32:50;;;;;;;8.67;2.70;;;;;;;2.39;100.00;100526.41;6073106;23;20026;-82
2022/02/25 04:35:19;;;;;;;4.90;2.63;;;;;;;2.40;99.92;100535.97;6049679;23;20023;-83
2022/02/25 04:37:46;;;;;;;3.80;2.60;;;;;;;2.43;100.00;100536.88;6074221;23;20022;-84
2022/02/25 04:40:12;;;;;;;5.23;2.60;;;;;;;2.49;100.00;100536.06;6074136;23;20069;-83
2022/02/25 04:42:39;;;;;;;6.67;2.43;;;;;;;2.50;100.00;100540.44;6071373;23;20026;-85
2022/02/25 04:45:07;;;;;;;5.20;2.83;;;;;;;2.43;98.61;100549.03;6068894;23;20026;-84
2022/02/25 04:47:36;;;;;;;6.27;2.47;;;;;;;2.34;100.00;100549.81;6072568;23;20402;-84
2022/02/25 04:50:03;;;;;;;7.10;2.77;;;;;;;2.36;99.05;100553.34;6071680;23;20018;-84
2022/02/25 04:52:29;;;;;;;5.80;2.93;;;;;;;2.32;100.00;100553.28;6047506;23;20030;-83
2022/02/25 04:54:56;;;;;;;10.27;3.50;;;;;;;2.31;100.00;100548.94;6070572;23;20029;-84
2022/02/25 04:57:23;;;;;;;9.50;3.40;;;;;;;2.30;100.00;100552.41;6070877;23;20033;-84
2022/02/25 04:59:49;;;;;;;7.17;3.00;;;;;;;2.30;100.00;100553.25;6047369;23;20030;-83
2022/02/25 05:02:17;;;;;;;10.67;3.27;;;;;;;2.19;100.00;100550.53;6047262;23;20358;-85
2022/02/25 05:04:44;;;;;;;5.23;2.20;;;;;;;2.15;100.00;100553.94;6046234;23;20091;-84
2022/02/25 05:07:10;;;;;;;10.73;3.20;;;;;;;2.04;99.78;100549.47;6070628;23;20049;-85
2022/02/25 05:09:37;;;;;;;4.57;3.17;;;;;;;2.09;100.00;100550.41;6071100;23;20018;-85
2022/02/25 05:12:04;;;;;;;8.43;3.80;;;;;;;1.96;100.00;100547.66;6070943;23;20354;-83
2022/02/25 05:20:23;;;;;;;10.20;3.10;;;;;;;1.98;100.00;100561.56;6073166;23;20030;-85
2022/02/25 05:22:57;;;;;;;15.47;4.50;;;;;;;1.90;100.00;100554.50;6050204;23;20073;-85
2022/02/25 05:25:24;;;;;;;5.77;3.27;;;;;;;1.82;100.00;100558.75;6045388;23;20450;-85
2022/02/25 05:27:52;;;;;;;8.23;3.07;;;;;;;1.81;100.00;100567.41;6045406;23;20023;-84
2022/02/25 05:30:20;;;;;;;6.70;3.37;;;;;;;1.82;100.00;100569.16;6045809;23;20074;-84
2022/02/25 05:32:48;;;;;;;7.30;3.43;;;;;;;1.78;100.00;100563.06;6046867;23;20018;-83
2022/02/25 05:35:15;;;;;;;5.13;3.17;;;;;;;1.79;100.00;100566.53;6069596;23;20022;-85
2022/02/25 05:37:43;;;;;;;8.33;3.37;;;;;;;1.75;100.00;100573.41;6070757;23;20524;-85
2022/02/25 05:40:12;;;;;;;7.37;3.33;;;;;;;1.79;100.00;100574.34;6094502;23;20029;-84
2022/02/25 05:42:39;;;;;;;9.20;3.63;;;;;;;1.73;100.00;100579.47;6093044;23;20049;-84
2022/02/25 05:45:07;;;;;;;5.87;3.27;;;;;;;1.73;100.00;100593.34;6068823;23;20029;-84
2022/02/25 05:47:34;;;;;;;6.97;2.63;;;;;;;1.70;100.00;100585.50;6069429;23;20031;-83
2022/02/25 05:50:06;;;;;;;10.00;3.37;;;;;;;1.74;100.00;100583.81;6093629;23;20050;-83
2022/02/25 05:52:34;;;;;;;4.67;3.13;;;;;;;1.75;100.00;100591.63;6045703;23;20028;-84
2022/02/25 05:55:01;;;;;;;9.93;3.20;;;;;;;1.68;100.00;100598.50;6044442;23;20335;-83
2022/02/25 05:57:27;;;;;;;6.07;3.43;;;;;;;1.67;100.00;100594.13;6045436;23;20097;-84
2022/02/25 05:59:54;;;;;;;15.23;5.10;;;;;;;1.67;100.00;100601.06;6069849;23;20085;-83
2022/02/25 06:02:22;;;;;;;6.37;2.50;;;;;;;1.63;100.00;100605.38;6068387;23;20046;-83
2022/02/25 06:04:50;;;;;;;5.17;2.80;;;;;;;1.62;100.00;100607.97;6044791;23;20022;-83
2022/02/25 06:07:17;;;;;;;5.27;2.87;;;;;;;1.70;100.00;100614.16;6070258;23;20450;-84
2022/02/25 06:09:43;;;;;;;7.07;2.80;;;;;;;1.69;100.00;100615.88;6045781;23;20018;-84
2022/02/25 06:12:10;;;;;;;7.30;3.00;;;;;;;1.77;100.00;100608.19;6068882;23;20033;-83
2022/02/25 06:14:37;;;;;;;5.40;3.33;;;;;;;1.68;100.00;100619.34;6044578;23;20018;-84
2022/02/25 06:17:03;;;;;;;6.10;2.93;;;;;;;1.70;100.00;100616.75;6068991;23;20026;-82
2022/02/25 06:19:30;;;;;;;5.50;2.70;;;;;;;1.77;100.00;100616.00;6068918;23;20073;-84
2022/02/25 06:21:59;;;;;;;5.93;2.50;;;;;;;1.74;100.00;100628.09;6046537;23;20422;-82
2022/02/25 06:24:26;;;;;;;4.77;2.63;;;;;;;1.86;100.00;100621.34;6044504;23;20082;-84
2022/02/25 06:26:53;;;;;;;7.03;3.03;;;;;;;1.86;100.00;100634.38;6069022;23;20030;-83
2022/02/25 06:29:20;;;;;;;4.13;2.40;;;;;;;1.97;100.00;100631.91;6046448;23;20026;-82
2022/02/25 06:31:46;;;;;;;4.07;2.30;;;;;;;1.86;100.00;100633.50;6070189;23;20026;-84
2022/02/25 06:34:13;;;;;;;10.50;4.10;;;;;;;1.86;100.00;100641.31;6069507;23;20473;-84
2022/02/25 06:36:40;;;;;;;3.60;2.23;;;;;;;2.04;100.00;100641.56;6068775;23;20300;-82
2022/02/25 06:39:06;;;;;;;8.07;2.83;;;;;;;2.04;100.00;100631.13;6069471;23;20332;-83
2022/02/25 06:41:33;;;;;;;4.40;2.40;;;;;;;2.07;99.93;100641.59;6070390;23;20466;-83
2022/02/25 06:44:00;;;;;;;5.80;2.17;;;;;;;2.17;100.00;100640.84;6046590;23;20082;-84
2022/02/25 06:46:27;;;;;;;5.90;2.40;;;;;;;2.19;99.56;100641.78;6044752;23;20030;-84
2022/02/25 06:48:54;;;;;;;7.10;3.23;;;;;;;2.21;100.00;100652.22;6069464;23;20366;-84
2022/02/25 06:51:20;;;;;;;6.23;2.40;;;;;;;2.26;99.08;100654.00;6070484;23;20030;-82
2022/02/25 06:53:47;;;;;;;6.23;2.87;;;;;;;2.31;99.23;100654.06;6044945;23;20018;-84
2022/02/25 06:56:14;;;;;;;9.13;3.40;;;;;;;2.34;98.55;100663.66;6045713;23;20081;-84
2022/02/25 06:58:40;;;;;;;6.27;2.63;;;;;;;2.32;98.79;100670.59;6047223;23;20030;-82
2022/02/25 07:01:10;;;;;;;4.13;2.90;;;;;;;2.32;99.03;100673.19;6094799;23;20026;-84
2022/02/25 07:03:37;;;;;;;7.33;2.83;;;;;;;2.37;98.93;100668.94;6070344;23;20034;-84
2022/02/25 07:06:05;;;;;;;5.57;2.70;;;;;;;2.41;98.12;100684.63;6092382;23;20706;-84
2022/02/25 07:08:31;;;;;;;10.57;3.27;;;;;;;2.49;97.58;100682.09;6045729;23;20030;-83
2022/02/25 07:10:58;;;;;;;6.90;2.70;;;;;;;2.49;96.25;100684.72;6070077;23;20022;-84
2022/02/25 07:13:25;;;;;;;3.93;2.47;;;;;;;2.52;96.25;100684.75;6045685;23;20115;-82
2022/02/25 07:15:53;;;;;;;5.50;2.20;;;;;;;2.45;97.88;100689.03;6069211;23;20101;-83
2022/02/25 07:18:20;;;;;;;5.27;2.20;;;;;;;2.49;97.48;100688.19;6068547;23;20064;-84
2022/02/25 07:20:47;;;;;;;7.80;2.77;;;;;;;2.65;96.76;100699.69;6068896;23;20025;-85
2022/02/25 07:23:17;;;;;;;6.87;2.13;;;;;;;2.70;95.56;100690.22;6092581;23;20029;-83
2022/02/25 07:25:44;;;;;;;5.90;2.83;;;;;;;2.75;96.33;100691.13;6070293;23;20097;-84
2022/02/25 07:28:13;;;;;;;7.30;2.67;;;;;;;2.81;95.81;100691.19;6071061;23;20030;-84
2022/02/25 07:30:41;;;;;;;5.40;2.50;;;;;;;2.86;94.91;100690.34;6071496;23;20023;-84
2022/02/25 07:33:08;;;;;;;7.90;2.57;;;;;;;2.84;94.12;100692.97;6070391;23;20528;-83
2022/02/25 07:35:35;;;;;;;5.60;2.77;;;;;;;2.96;95.16;100702.69;6093444;23;20022;-85
2022/02/25 07:38:02;;;;;;;6.57;2.67;;;;;;;3.03;93.32;100699.28;6070038;23;20366;-83
2022/02/25 07:40:30;;;;;;;5.33;2.43;;;;;;;3.11;92.66;100700.19;6048094;23;20034;-85
2022/02/25 07:42:56;;;;;;;7.40;2.67;;;;;;;3.10;92.40;100699.31;6071153;23;20022;-82
2022/02/25 07:45:25;;;;;;;7.70;3.10;;;;;;;3.28;92.96;100696.06;6094855;23;20085;-84
2022/02/25 07:47:52;;;;;;;4.40;2.20;;;;;;;3.39;91.28;100701.38;6075847;23;20033;-82
2022/02/25 07:50:19;;;;;;;6.57;2.27;;;;;;;3.44;89.55;100697.03;6072059;23;20269;-84
2022/02/25 07:52:46;;;;;;;10.30;3.07;;;;;;;3.35;88.75;100702.19;6070236;23;20472;-84
2022/02/25 07:55:14;;;;;;;4.77;2.93;;;;;;;3.49;88.20;100694.50;6046350;23;20027;-85
2022/02/25 07:57:41;;;;;;;4.47;2.50;;;;;;;3.51;88.09;100703.22;6070749;23;20022;-84
2022/02/25 08:00:27;;;;;;;7.47;3.13;;;;;;;3.52;87.80;100704.94;6095177;23;20025;-81
2022/02/25 08:02:54;;;;;;;5.53;2.70;;;;;;;3.44;86.81;100698.78;6070369;23;20022;-84
2022/02/25 08:05:28;;;;;;;6.60;2.50;;;;;;;3.52;87.00;100707.56;6047834;23;20026;-81
2022/02/25 08:08:03;;;;;;;4.43;2.10;;;;;;;3.49;85.47;100700.59;6092711;23;20089;-85
2022/02/25 08:10:32;;;;;;;9.47;2.50;;;;;;;3.51;85.79;100711.03;6046041;23;20046;-83
2022/02/25 08:13:00;;;;;;;4.80;2.30;;;;;;;3.57;86.50;100713.72;6070282;23;20451;-83
2022/02/25 08:15:33;;;;;;;6.50;2.90;;;;;;;3.67;85.87;100718.16;6069899;23;20474;-79
2022/02/25 08:18:02;;;;;;;7.17;2.70;;;;;;;3.76;85.49;100727.81;6075925;23;20021;-80
2022/02/25 08:20:30;;;;;;;5.03;2.30;;;;;;;3.84;84.40;100727.00;6120649;23;20055;-77
2022/02/25 08:22:57;;;;;;;6.50;2.80;;;;;;;3.91;85.20;100723.56;6119021;23;20021;-78
2022/02/25 08:25:24;;;;;;;5.63;3.10;;;;;;;4.04;83.58;100736.75;6097209;23;20052;-78
2022/02/25 08:27:51;;;;;;;6.03;3.40;;;;;;;4.11;81.76;100744.63;6122413;23;20030;-78
2022/02/25 08:30:18;;;;;;;7.60;2.97;;;;;;;4.04;82.89;100732.41;6121119;23;20038;-79
2022/02/25 08:32:46;;;;;;;7.90;3.43;;;;;;;4.00;82.84;100740.19;6124063;23;20018;-80
2022/02/25 08:35:14;;;;;;;7.97;3.00;;;;;;;3.94;81.35;100736.66;6123065;23;20049;-80
2022/02/25 08:37:41;;;;;;;6.70;3.10;;;;;;;4.00;83.29;100735.84;6101032;23;20022;-80
2022/02/25 08:40:09;;;;;;;6.43;3.90;;;;;;;4.12;82.38;100737.66;6100399;23;20025;-79
2022/02/25 08:42:37;;;;;;;5.27;3.00;;;;;;;4.21;81.14;100750.81;6101574;23;20032;-79
2022/02/25 08:45:05;;;;;;;7.70;3.03;;;;;;;4.16;80.84;100736.81;6076233;23;20080;-79
2022/02/25 08:47:32;;;;;;;7.10;3.20;;;;;;;4.20;81.02;100738.59;6124522;23;20026;-79
2022/02/25 08:49:58;;;;;;;8.43;3.07;;;;;;;4.22;81.64;100736.88;6100953;23;20018;-79
2022/02/25 08:52:25;;;;;;;5.83;3.37;;;;;;;4.34;79.99;100736.06;6124700;23;20025;-80
2022/02/25 08:54:52;;;;;;;8.10;3.20;;;;;;;4.39;80.16;100737.84;6124564;23;20454;-80
2022/02/25 08:57:19;;;;;;;5.87;3.10;;;;;;;4.33;79.31;100726.47;6100148;23;20026;-80
2022/02/25 08:59:46;;;;;;;9.03;3.30;;;;;;;4.31;79.67;100754.38;6076661;23;20022;-80
2022/02/25 09:02:12;;;;;;;9.33;3.00;;;;;;;4.42;79.40;100743.09;6124067;23;20524;-80
2022/02/25 09:04:40;;;;;;;4.70;3.20;;;;;;;4.44;79.03;100754.44;6121500;23;20022;-82
2022/02/25 09:07:10;;;;;;;9.00;3.53;;;;;;;4.51;78.52;100732.69;6081820;23;20488;-81
2022/02/25 09:09:37;;;;;;;7.83;2.97;;;;;;;4.69;79.96;100744.09;6080433;23;20014;-79
2022/02/25 09:12:03;;;;;;;6.13;3.00;;;;;;;4.80;76.56;100745.03;6126147;23;20033;-81
2022/02/25 09:14:30;;;;;;;6.37;2.50;;;;;;;4.89;77.31;100752.94;6105001;23;20022;-78
2022/02/25 09:16:57;;;;;;;8.73;3.00;;;;;;;4.87;74.73;100744.19;6128858;23;20041;-79
2022/02/25 09:19:23;;;;;;;6.77;3.10;;;;;;;4.97;76.39;100755.59;6129983;23;20018;-81
2022/02/25 09:21:50;;;;;;;6.03;3.03;;;;;;;5.06;75.53;100753.00;6080397;23;20028;-81
2022/02/25 09:24:19;;;;;;;7.63;3.17;;;;;;;5.19;76.35;100748.66;6104116;23;20030;-79
2022/02/25 09:26:46;;;;;;;5.90;2.87;;;;;;;5.45;76.01;100752.22;6079350;23;20028;-81
2022/02/25 09:29:13;;;;;;;6.07;3.60;;;;;;;5.43;73.30;100753.09;6078353;23;20045;-79
2022/02/25 09:31:40;;;;;;;7.73;3.67;;;;;;;5.46;73.90;100764.44;6102607;23;20026;-80
2022/02/25 09:34:07;;;;;;;5.37;3.53;;;;;;;5.48;75.32;100760.09;6102368;23;20022;-80
2022/02/25 09:36:34;;;;;;;7.50;3.00;;;;;;;5.49;74.94;100774.94;6100669;23;20030;-81
2022/02/25 09:39:01;;;;;;;7.80;2.90;;;;;;;5.59;73.71;100767.97;6127803;23;20022;-82
2022/02/25 09:41:27;;;;;;;4.80;2.20;;;;;;;5.64;72.84;100777.59;6078944;23;20029;-81
2022/02/25 09:43:54;;;;;;;10.20;2.90;;;;;;;5.62;72.46;100775.81;6121659;23;20085;-81
2022/02/25 09:46:21;;;;;;;10.63;3.27;;;;;;;5.65;72.87;100773.22;6097011;23;20029;-80
2022/02/25 09:48:48;;;;;;;7.97;2.67;;;;;;;5.67;71.74;100781.09;6097367;23;20046;-80
2022/02/25 09:51:14;;;;;;;9.33;2.90;;;;;;;5.57;73.59;100782.81;6122838;23;20026;-80
2022/02/25 09:53:41;;;;;;;7.63;3.07;;;;;;;5.58;72.58;100782.81;6097585;23;20026;-80
2022/02/25 09:56:08;;;;;;;5.93;3.03;;;;;;;5.56;73.02;100779.31;6095091;23;20516;-79
2022/02/25 09:58:35;;;;;;;6.97;2.80;;;;;;;5.57;73.29;100786.31;6121424;23;20030;-80
2022/02/25 10:01:03;;;;;;;7.67;2.73;;;;;;;5.57;73.57;100786.31;6121299;23;20026;-81
2022/02/25 10:03:30;;;;;;;5.27;2.30;;;;;;;5.46;72.96;100785.41;6095908;23;20038;-80
2022/02/25 10:06:09;;;;;;;8.57;2.87;;;;;;;5.79;72.00;100787.19;6120424;23;20129;-81
2022/02/25 10:08:36;;;;;;;6.43;2.43;;;;;;;6.25;71.66;100784.63;6073297;23;20030;-81
2022/02/25 10:11:04;;;;;;;7.37;2.60;;;;;;;6.26;69.16;100789.00;6120312;23;20032;-80
2022/02/25 10:13:32;;;;;;;4.67;2.70;;;;;;;6.09;68.07;100780.28;6121123;23;20045;-81
2022/02/25 10:16:24;;;;;;;12.00;2.60;;;;;;;5.90;68.53;100800.34;6079694;23;20033;-81
2022/02/25 10:18:59;;;;;;;4.00;2.27;;;;;;;5.62;68.77;100797.66;6096277;23;20024;-81
2022/02/25 10:21:26;;;;;;;4.90;2.90;;;;;;;5.65;71.33;100797.69;6096645;23;20026;-79
2022/02/25 10:23:52;;;;;;;6.03;2.40;;;;;;;5.53;70.51;100805.50;6120888;23;20026;-79
2022/02/25 10:26:20;;;;;;;4.37;2.30;;;;;;;5.54;69.68;100807.25;6118274;23;20113;-80
2022/02/25 10:28:52;;;;;;;8.83;2.70;;;;;;;5.74;70.27;100798.56;6096509;23;20037;-79
2022/02/25 10:31:21;;;;;;;9.50;2.97;;;;;;;5.69;69.33;100793.31;6096863;23;20060;-79
2022/02/25 10:34:02;;;;;;;4.23;2.40;;;;;;;5.70;69.52;100802.91;6096668;23;20026;-80
2022/02/25 10:36:46;;;;;;;7.50;2.20;;;;;;;5.85;70.50;100794.22;6096403;23;20029;-81
2022/02/25 10:39:29;;;;;;;5.43;2.75;;;;;;;5.88;70.91;100794.19;6124554;23;20022;-79
2022/02/25 10:42:04;;;;;;;9.17;3.00;;;;;;;5.86;70.61;100796.81;6096373;23;20085;-79
2022/02/25 10:44:41;;;;;;;7.97;3.20;;;;;;;5.85;69.74;100800.31;6073153;23;20026;-80
2022/02/25 10:47:23;;;;;;;5.53;2.40;;;;;;;5.86;70.49;100802.06;6120091;23;20357;-80
2022/02/25 10:49:59;;;;;;;6.53;2.50;;;;;;;5.90;71.40;100790.75;6094876;23;20026;-80
2022/02/25 10:52:37;;;;;;;6.53;2.30;;;;;;;5.78;68.30;100809.06;6096270;23;20030;-80
2022/02/25 10:55:17;;;;;;;5.17;2.40;;;;;;;5.80;70.35;100802.09;6095930;23;20057;-80
2022/02/25 10:57:45;;;;;;;5.73;2.40;;;;;;;5.87;70.55;100805.56;6096905;23;20079;-79
2022/02/25 11:00:14;;;;;;;12.87;3.77;;;;;;;5.82;68.71;100807.31;6098066;23;20100;-79
2022/02/25 11:02:50;;;;;;;6.30;2.27;;;;;;;5.84;69.98;100798.56;6098215;23;20028;-80
2022/02/25 11:05:25;;;;;;;4.80;2.40;;;;;;;5.91;70.45;100799.50;6097746;23;20461;-82
2022/02/25 11:07:54;;;;;;;7.17;3.07;;;;;;;6.24;68.77;100790.75;6121306;23;20018;-81
2022/02/25 11:10:23;;;;;;;8.33;3.13;;;;;;;6.36;67.36;100789.88;6097090;23;20028;-81
2022/02/25 11:12:51;;;;;;;6.70;2.20;;;;;;;6.12;67.67;100783.75;6097883;23;20033;-80
2022/02/25 11:15:21;;;;;;;6.13;2.17;;;;;;;6.25;69.90;100789.00;6097034;23;20029;-80
2022/02/25 11:17:48;;;;;;;4.63;2.00;;;;;;;6.26;66.87;100789.00;6121691;23;20026;-79
2022/02/25 11:20:24;;;;;;;5.53;2.53;;;;;;;6.24;67.15;100788.13;6097365;23;20021;-80
2022/02/25 11:22:59;;;;;;;4.63;2.30;;;;;;;6.47;67.32;100782.84;6097780;23;20025;-80
2022/02/25 11:25:26;;;;;;;4.73;2.10;;;;;;;6.63;68.21;100784.56;6072911;23;20121;-79
2022/02/25 11:27:53;;;;;;;6.17;2.33;;;;;;;7.07;64.67;100791.44;6099008;23;20026;-80
2022/02/25 11:30:39;;;;;;;6.07;2.03;;;;;;;7.37;63.10;100787.78;6073665;23;20022;-81
2022/02/25 11:33:13;;;;;;;4.70;2.43;;;;;;;7.14;61.59;100794.88;6122398;23;20478;-79
2022/02/25 11:35:59;;;;;;;6.63;2.03;;;;;;;6.97;63.54;100785.31;6097701;23;20403;-81
2022/02/25 11:38:33;;;;;;;11.17;3.13;;;;;;;6.62;62.47;100769.69;6074295;23;20022;-80
2022/02/25 11:41:05;;;;;;;6.88;2.95;;;;;;;6.76;63.79;100788.03;6098877;23;20018;-81